createdAt,value
2022-10-18T00:00:08.425Z,22.88
2022-10-18T00:02:35.564Z,22.88
2022-10-18T00:05:02.680Z,22.88
2022-10-18T00:07:30.005Z,22.88
2022-10-18T00:09:57.262Z,22.89
2022-10-18T00:12:24.310Z,22.88
2022-10-18T00:14:51.551Z,22.90
2022-10-18T00:17:18.852Z,22.91
2022-10-18T00:19:46.915Z,22.93
2022-10-18T00:22:14.040Z,22.90
2022-10-18T00:24:41.282Z,22.91
2022-10-18T00:27:08.370Z,22.92
2022-10-18T00:29:35.531Z,22.94
2022-10-18T00:32:02.591Z,22.93
2022-10-18T00:34:29.930Z,22.92
2022-10-18T00:36:57.167Z,22.89
2022-10-18T00:39:24.211Z,22.87
2022-10-18T00:41:52.006Z,22.86
2022-10-18T00:44:19.034Z,22.87
2022-10-18T00:46:48.194Z,22.85
2022-10-18T00:49:22.869Z,22.84
2022-10-18T00:52:12.297Z,22.82
2022-10-18T00:54:42.277Z,22.78
2022-10-18T00:57:10.381Z,22.75
2022-10-18T00:59:38.021Z,22.68
2022-10-18T01:02:07.296Z,22.64
2022-10-18T01:04:35.119Z,22.61
2022-10-18T01:07:24.575Z,22.57
2022-10-18T01:10:06.085Z,22.57
2022-10-18T01:12:54.385Z,22.58
2022-10-18T01:15:28.690Z,22.57
2022-10-18T01:18:04.686Z,22.57
2022-10-18T01:20:56.055Z,22.57
2022-10-18T01:24:00.946Z,22.56
2022-10-18T01:26:40.121Z,22.54
2022-10-18T01:29:28.779Z,22.56
2022-10-18T01:32:29.536Z,22.60
2022-10-18T01:35:02.792Z,22.60
2022-10-18T01:37:32.276Z,22.57
2022-10-18T01:40:00.700Z,22.56
2022-10-18T01:42:28.788Z,22.56
2022-10-18T01:44:56.964Z,22.55
2022-10-18T01:47:24.348Z,22.53
2022-10-18T01:49:59.256Z,22.51
2022-10-18T01:52:26.685Z,22.50
2022-10-18T01:54:55.901Z,22.48
2022-10-18T01:57:42.950Z,22.48
2022-10-18T02:00:17.066Z,22.45
2022-10-18T02:03:02.431Z,22.42
2022-10-18T02:05:41.718Z,22.37
2022-10-18T02:08:22.908Z,22.36
2022-10-18T02:11:15.972Z,22.36
2022-10-18T02:13:48.791Z,22.38
2022-10-18T02:16:49.373Z,22.38
2022-10-18T02:21:59.324Z,22.39
2022-10-18T02:24:33.818Z,22.40
2022-10-18T02:27:01.248Z,22.40
2022-10-18T02:29:29.403Z,22.40
2022-10-18T02:32:04.797Z,22.44
2022-10-18T02:34:38.107Z,22.44
2022-10-18T02:37:05.578Z,22.45
2022-10-18T02:39:38.249Z,22.45
2022-10-18T02:42:07.382Z,22.45
2022-10-18T02:44:35.341Z,22.42
2022-10-18T02:47:06.473Z,22.39
2022-10-18T02:49:33.653Z,22.32
2022-10-18T02:52:00.838Z,22.29
2022-10-18T02:54:27.891Z,22.26
2022-10-18T02:56:55.434Z,22.23
2022-10-18T02:59:22.496Z,22.20
2022-10-18T03:01:49.632Z,22.19
2022-10-18T03:04:17.159Z,22.20
2022-10-18T03:06:44.281Z,22.16
2022-10-18T03:09:11.329Z,22.11
2022-10-18T03:11:38.490Z,22.09
2022-10-18T03:14:05.546Z,22.10
2022-10-18T03:16:34.246Z,22.11
2022-10-18T03:19:01.529Z,22.16
2022-10-18T03:21:28.565Z,22.20
2022-10-18T03:23:56.393Z,22.25
2022-10-18T03:26:23.483Z,22.28
2022-10-18T03:28:50.575Z,22.26
2022-10-18T03:31:17.848Z,22.27
2022-10-18T03:33:45.040Z,22.29
2022-10-18T03:36:12.532Z,22.27
2022-10-18T03:38:39.652Z,22.26
2022-10-18T03:41:06.852Z,22.25
2022-10-18T03:43:33.944Z,22.28
2022-10-18T03:46:01.891Z,22.30
2022-10-18T03:48:29.085Z,22.33
2022-10-18T03:50:56.163Z,22.37
2022-10-18T03:53:23.372Z,22.35
2022-10-18T03:55:54.843Z,22.36
2022-10-18T03:58:22.604Z,22.37
2022-10-18T04:00:51.411Z,22.37
2022-10-18T04:03:19.442Z,22.35
2022-10-18T04:05:47.566Z,22.34
2022-10-18T04:08:15.306Z,22.33
2022-10-18T04:10:43.037Z,22.32
2022-10-18T04:13:10.288Z,22.31
2022-10-18T04:15:37.406Z,22.31
2022-10-18T04:18:04.691Z,22.31
2022-10-18T04:20:31.879Z,22.35
2022-10-18T04:22:58.932Z,22.34
2022-10-18T04:25:26.031Z,22.33
2022-10-18T04:27:53.137Z,22.27
2022-10-18T04:30:20.657Z,22.24
2022-10-18T04:32:47.700Z,22.22
2022-10-18T04:35:14.840Z,22.20
2022-10-18T04:37:41.930Z,22.19
2022-10-18T04:40:09.837Z,22.20
2022-10-18T04:42:37.079Z,22.22
2022-10-18T04:45:04.448Z,22.24
2022-10-18T04:47:31.842Z,22.27
2022-10-18T04:49:59.313Z,22.30
2022-10-18T04:52:26.385Z,22.32
2022-10-18T04:54:53.602Z,22.33
2022-10-18T04:57:20.737Z,22.33
2022-10-18T04:59:47.791Z,22.28
2022-10-18T05:02:14.935Z,22.28
2022-10-18T05:04:42.250Z,22.29
2022-10-18T05:07:09.407Z,22.29
2022-10-18T05:09:36.409Z,22.29
2022-10-18T05:12:03.612Z,22.29
2022-10-18T05:14:30.764Z,22.30
2022-10-18T05:16:57.806Z,22.31
2022-10-18T05:19:24.968Z,22.27
2022-10-18T05:21:52.138Z,22.27
2022-10-18T05:24:20.267Z,22.26
2022-10-18T05:26:49.122Z,22.21
2022-10-18T05:29:16.406Z,22.23
2022-10-18T05:31:43.626Z,22.22
2022-10-18T05:34:10.715Z,22.24
2022-10-18T05:36:37.786Z,22.26
2022-10-18T05:39:05.713Z,22.27
2022-10-18T05:41:33.432Z,22.23
2022-10-18T05:44:05.023Z,22.25
2022-10-18T05:46:32.650Z,22.27
2022-10-18T05:48:59.993Z,22.28
2022-10-18T05:51:27.009Z,22.28
2022-10-18T05:53:55.038Z,22.28
2022-10-18T05:56:22.410Z,22.24
2022-10-18T05:58:52.860Z,22.20
2022-10-18T06:01:20.184Z,22.19
2022-10-18T06:03:47.883Z,22.18
2022-10-18T06:06:15.550Z,22.17
2022-10-18T06:08:44.136Z,22.15
2022-10-18T06:11:16.572Z,22.11
2022-10-18T06:13:49.295Z,22.06
2022-10-18T06:16:18.985Z,22.03
2022-10-18T06:18:50.559Z,21.95
2022-10-18T06:21:18.554Z,21.79
2022-10-18T06:23:52.849Z,21.73
2022-10-18T06:26:20.481Z,21.64
2022-10-18T06:28:47.616Z,21.66
2022-10-18T06:31:15.390Z,21.68
2022-10-18T06:33:42.625Z,21.73
2022-10-18T06:36:18.956Z,21.76
2022-10-18T06:38:46.286Z,21.78
2022-10-18T06:41:13.483Z,21.76
2022-10-18T06:43:40.864Z,21.77
2022-10-18T06:46:08.877Z,21.77
2022-10-18T06:48:37.180Z,21.77
2022-10-18T06:51:06.617Z,21.77
2022-10-18T06:53:43.768Z,21.78
2022-10-18T06:56:15.809Z,21.77
2022-10-18T06:58:43.259Z,21.79
2022-10-18T07:01:13.473Z,21.79
2022-10-18T07:03:40.588Z,21.78
2022-10-18T07:06:09.757Z,21.77
2022-10-18T07:08:38.001Z,21.77
2022-10-18T07:11:06.166Z,21.72
2022-10-18T07:13:34.594Z,21.65
2022-10-18T07:16:07.093Z,21.61
2022-10-18T07:18:38.533Z,21.58
2022-10-18T07:21:11.033Z,21.56
2022-10-18T07:23:40.474Z,21.57
2022-10-18T07:26:15.287Z,21.55
2022-10-18T07:28:43.629Z,21.55
2022-10-18T07:31:12.778Z,21.60
2022-10-18T07:33:40.211Z,21.60
2022-10-18T07:36:09.536Z,21.66
2022-10-18T07:38:37.270Z,21.68
2022-10-18T07:41:07.208Z,21.68
2022-10-18T07:43:35.509Z,21.73
2022-10-18T07:46:04.804Z,21.78
2022-10-18T07:48:32.499Z,21.85
2022-10-18T07:51:01.184Z,21.90
2022-10-18T07:53:29.973Z,21.95
2022-10-18T07:56:03.450Z,21.98
2022-10-18T07:58:33.993Z,22.00
2022-10-18T08:01:05.644Z,22.04
2022-10-18T08:03:33.134Z,22.02
2022-10-18T08:06:00.210Z,22.02
2022-10-18T08:08:27.892Z,22.01
2022-10-18T08:10:55.094Z,22.01
2022-10-18T08:13:22.629Z,22.03
2022-10-18T08:15:49.686Z,22.02
2022-10-18T08:18:16.793Z,22.01
2022-10-18T08:20:45.378Z,22.03
2022-10-18T08:23:12.579Z,22.05
2022-10-18T08:25:39.982Z,22.10
2022-10-18T08:28:07.959Z,22.15
2022-10-18T08:30:36.159Z,22.20
2022-10-18T08:33:04.069Z,22.23
2022-10-18T08:35:32.173Z,22.24
2022-10-18T08:37:59.825Z,22.30
2022-10-18T08:40:27.990Z,22.35
2022-10-18T08:43:08.113Z,22.41
2022-10-18T08:45:42.345Z,22.44
2022-10-18T08:48:26.493Z,22.49
2022-10-18T08:50:55.828Z,22.52
2022-10-18T08:53:52.434Z,22.54
2022-10-18T08:56:24.433Z,22.59
2022-10-18T08:58:51.571Z,22.60
2022-10-18T09:01:51.203Z,22.64
2022-10-18T09:04:43.275Z,22.70
2022-10-18T09:07:37.149Z,22.71
2022-10-18T09:10:34.179Z,22.72
2022-10-18T09:13:33.681Z,22.78
2022-10-18T09:16:03.148Z,22.76
2022-10-18T09:18:58.266Z,22.76
2022-10-18T09:21:43.227Z,22.77
2022-10-18T09:24:27.590Z,22.79
2022-10-18T09:27:16.633Z,22.71
2022-10-18T09:29:57.529Z,22.69
2022-10-18T09:32:46.699Z,22.76
2022-10-18T09:35:34.300Z,22.79
2022-10-18T09:38:09.808Z,22.82
2022-10-18T09:40:44.843Z,22.88
2022-10-18T09:43:21.439Z,22.94
2022-10-18T09:45:49.316Z,23.00
2022-10-18T09:48:24.155Z,23.04
2022-10-18T09:51:22.044Z,23.09
2022-10-18T09:54:04.392Z,23.14
2022-10-18T09:56:41.041Z,23.17
2022-10-18T09:59:30.690Z,23.24
2022-10-18T10:01:57.721Z,23.30
2022-10-18T10:04:24.742Z,23.38
2022-10-18T10:06:54.012Z,23.42
2022-10-18T10:09:36.680Z,23.49
2022-10-18T10:12:03.944Z,23.50
2022-10-18T10:14:31.115Z,23.56
2022-10-18T10:17:02.900Z,23.45
2022-10-18T10:19:54.610Z,23.42
2022-10-18T10:22:42.180Z,23.44
2022-10-18T10:25:26.353Z,23.44
2022-10-18T10:27:53.783Z,23.49
2022-10-18T10:30:26.122Z,23.56
2022-10-18T10:32:54.378Z,23.62
2022-10-18T10:38:27.970Z,23.79
2022-10-18T10:40:56.042Z,23.82
2022-10-18T10:43:37.507Z,23.88
2022-10-18T10:46:11.750Z,23.89
2022-10-18T10:49:27.916Z,23.93
2022-10-18T10:52:08.125Z,24.07
2022-10-18T10:54:39.296Z,24.20
2022-10-18T10:57:22.353Z,24.15
2022-10-18T10:59:56.008Z,24.02
2022-10-18T11:02:24.162Z,23.97
2022-10-18T11:04:53.062Z,23.99
2022-10-18T11:07:25.810Z,23.97
2022-10-18T11:10:11.180Z,23.97
2022-10-18T11:13:04.047Z,23.86
2022-10-18T11:15:45.641Z,23.69
2022-10-18T11:18:24.781Z,23.59
2022-10-18T11:20:56.596Z,23.71
2022-10-18T11:23:31.249Z,23.85
2022-10-18T11:26:03.601Z,23.99
2022-10-18T11:28:36.821Z,24.12
2022-10-18T11:31:38.358Z,24.23
2022-10-18T11:34:17.994Z,24.38
2022-10-18T11:37:22.941Z,24.45
2022-10-18T11:39:59.013Z,24.51
2022-10-18T11:42:44.963Z,24.42
2022-10-18T11:45:38.586Z,24.39
2022-10-18T11:48:27.433Z,24.43
2022-10-18T11:51:34.223Z,24.44
2022-10-18T11:54:36.792Z,24.29
2022-10-18T11:57:22.182Z,24.32
2022-10-18T12:03:23.770Z,24.52
2022-10-18T12:05:52.992Z,24.63
2022-10-18T12:08:40.298Z,24.77
2022-10-18T12:11:15.517Z,24.80
2022-10-18T12:13:59.283Z,24.98
2022-10-18T12:16:50.075Z,25.14
2022-10-18T12:19:25.408Z,25.24
2022-10-18T12:21:56.828Z,25.34
2022-10-18T12:24:28.587Z,25.45
2022-10-18T12:27:00.148Z,25.43
2022-10-18T12:29:50.405Z,25.29
2022-10-18T12:32:32.761Z,25.29
2022-10-18T12:35:05.164Z,25.30
2022-10-18T12:37:43.855Z,25.37
2022-10-18T12:40:39.173Z,25.42
2022-10-18T12:43:38.831Z,25.28
2022-10-18T12:46:13.001Z,25.25
2022-10-18T12:48:45.897Z,25.35
2022-10-18T12:51:23.832Z,25.42
2022-10-18T12:54:03.120Z,25.53
2022-10-18T12:56:30.196Z,25.59
2022-10-18T12:59:27.177Z,25.65
2022-10-18T13:01:54.450Z,25.60
2022-10-18T13:04:27.808Z,25.55
2022-10-18T13:06:57.928Z,25.52
2022-10-18T13:09:26.431Z,25.54
2022-10-18T13:12:02.165Z,25.64
2022-10-18T13:15:05.731Z,25.71
2022-10-18T13:18:11.259Z,25.62
2022-10-18T13:20:47.542Z,25.58
2022-10-18T13:23:52.214Z,25.40
2022-10-18T13:26:40.789Z,25.48
2022-10-18T13:29:14.079Z,25.52
2022-10-18T13:31:57.322Z,25.53
2022-10-18T13:34:33.650Z,25.62
2022-10-18T13:37:06.966Z,25.53
2022-10-18T13:39:34.953Z,25.43
2022-10-18T13:42:01.979Z,25.49
2022-10-18T13:44:40.337Z,25.59
2022-10-18T13:47:07.400Z,25.70
2022-10-18T13:49:37.254Z,25.85
2022-10-18T13:52:31.117Z,25.98
2022-10-18T13:54:58.277Z,26.05
2022-10-18T13:57:49.585Z,26.05
2022-10-18T14:00:44.848Z,26.11
2022-10-18T14:03:56.291Z,26.13
2022-10-18T14:06:35.805Z,26.12
2022-10-18T14:09:40.380Z,26.14
2022-10-18T14:12:32.966Z,26.20
2022-10-18T14:15:07.852Z,26.23
2022-10-18T14:18:05.193Z,26.15
2022-10-18T14:20:49.536Z,26.20
2022-10-18T14:23:38.334Z,26.25
2022-10-18T14:26:13.515Z,26.19
2022-10-18T14:29:00.108Z,26.17
2022-10-18T14:31:28.492Z,26.05
2022-10-18T14:33:59.398Z,26.03
2022-10-18T14:36:41.936Z,26.10
2022-10-18T14:39:22.488Z,26.13
2022-10-18T14:41:57.658Z,26.25
2022-10-18T14:44:29.595Z,26.35
2022-10-18T14:47:01.390Z,26.25
2022-10-18T14:49:28.930Z,26.23
2022-10-18T14:51:58.830Z,26.30
2022-10-18T14:54:34.508Z,26.12
2022-10-18T14:57:02.554Z,25.92
2022-10-18T14:59:33.952Z,25.98
2022-10-18T15:02:15.106Z,26.10
2022-10-18T15:04:45.324Z,26.26
2022-10-18T15:07:17.955Z,26.47
2022-10-18T15:09:45.885Z,26.34
2022-10-18T15:12:15.603Z,26.25
2022-10-18T15:14:43.902Z,26.26
2022-10-18T15:17:32.148Z,26.29
2022-10-18T15:20:05.979Z,26.34
2022-10-18T15:22:34.121Z,26.37
2022-10-18T15:25:22.666Z,26.38
2022-10-18T15:28:00.568Z,26.40
2022-10-18T15:30:30.516Z,26.34
2022-10-18T15:33:00.522Z,26.24
2022-10-18T15:35:36.232Z,26.16
2022-10-18T15:38:24.866Z,26.06
2022-10-18T15:40:52.538Z,26.05
2022-10-18T15:43:28.685Z,26.00
2022-10-18T15:46:01.553Z,25.91
2022-10-18T15:48:35.069Z,25.83
2022-10-18T15:51:07.220Z,25.77
2022-10-18T15:53:54.109Z,25.72
2022-10-18T15:56:27.499Z,25.57
2022-10-18T15:58:57.434Z,25.42
2022-10-18T16:01:29.548Z,25.33
2022-10-18T16:03:56.756Z,25.24
2022-10-18T16:06:23.944Z,25.17
2022-10-18T16:08:53.098Z,25.18
2022-10-18T16:11:21.565Z,25.22
2022-10-18T16:13:49.234Z,25.41
2022-10-18T16:16:30.311Z,25.35
2022-10-18T16:18:58.001Z,25.41
2022-10-18T16:21:28.310Z,25.52
2022-10-18T16:23:56.029Z,25.48
2022-10-18T16:26:24.552Z,25.50
2022-10-18T16:28:52.624Z,25.52
2022-10-18T16:31:25.545Z,25.53
2022-10-18T16:33:53.692Z,25.48
2022-10-18T16:36:26.520Z,25.45
2022-10-18T16:38:55.373Z,25.47
2022-10-18T16:41:25.498Z,25.47
2022-10-18T16:43:52.919Z,25.67
2022-10-18T16:46:27.856Z,25.65
2022-10-18T16:48:56.325Z,25.53
2022-10-18T16:51:24.205Z,25.55
2022-10-18T16:53:53.701Z,25.47
2022-10-18T16:56:24.693Z,25.37
2022-10-18T16:58:52.899Z,25.35
2022-10-18T17:01:21.703Z,25.38
2022-10-18T17:03:49.407Z,25.29
2022-10-18T17:06:18.204Z,25.28
2022-10-18T17:08:45.989Z,25.15
2022-10-18T17:11:14.339Z,25.06
2022-10-18T17:13:41.837Z,24.99
2022-10-18T17:16:19.653Z,24.89
2022-10-18T17:18:46.902Z,24.82
2022-10-18T17:21:14.215Z,24.71
2022-10-18T17:23:41.356Z,24.66
2022-10-18T17:26:27.771Z,24.60
2022-10-18T17:29:02.177Z,24.59
2022-10-18T17:31:30.921Z,24.56
2022-10-18T17:34:00.082Z,24.54
2022-10-18T17:36:27.199Z,24.55
2022-10-18T17:38:55.014Z,24.52
2022-10-18T17:41:22.353Z,24.53
2022-10-18T17:43:49.697Z,24.50
2022-10-18T17:46:18.246Z,24.49
2022-10-18T17:48:45.820Z,24.52
2022-10-18T17:51:15.542Z,24.52
2022-10-18T17:53:42.591Z,24.50
2022-10-18T17:56:11.506Z,24.50
2022-10-18T17:58:38.985Z,24.46
2022-10-18T18:01:24.380Z,24.48
2022-10-18T18:03:57.403Z,24.46
2022-10-18T18:06:34.206Z,24.43
2022-10-18T18:09:08.102Z,24.35
2022-10-18T18:11:37.440Z,24.29
2022-10-18T18:14:09.465Z,24.22
2022-10-18T18:16:43.164Z,24.13
2022-10-18T18:19:10.675Z,24.07
2022-10-18T18:21:38.581Z,24.00
2022-10-18T18:24:06.201Z,23.97
2022-10-18T18:26:35.168Z,23.94
2022-10-18T18:31:40.016Z,23.92
2022-10-18T18:34:10.140Z,23.90
2022-10-18T18:36:37.234Z,23.86
2022-10-18T18:39:06.055Z,23.84
2022-10-18T18:41:33.483Z,23.81
2022-10-18T18:44:03.130Z,23.79
2022-10-18T18:46:33.857Z,23.77
2022-10-18T18:49:00.881Z,23.76
2022-10-18T18:51:28.229Z,23.72
2022-10-18T18:53:55.449Z,23.74
2022-10-18T18:56:30.038Z,23.77
2022-10-18T18:58:59.787Z,23.83
2022-10-18T19:01:31.615Z,23.87
2022-10-18T19:03:59.785Z,23.92
2022-10-18T19:06:37.033Z,23.97
2022-10-18T19:09:12.933Z,23.99
2022-10-18T19:11:42.046Z,24.02
2022-10-18T19:14:09.529Z,24.03
2022-10-18T19:16:42.053Z,24.02
2022-10-18T19:19:13.513Z,24.00
2022-10-18T19:21:52.476Z,23.99
2022-10-18T19:24:21.468Z,23.97
2022-10-18T19:26:51.877Z,24.01
2022-10-18T19:29:22.939Z,24.01
2022-10-18T19:31:56.173Z,24.01
2022-10-18T19:34:25.628Z,24.02
2022-10-18T19:36:52.784Z,24.04
2022-10-18T19:39:28.060Z,24.06
2022-10-18T19:41:57.195Z,24.06
2022-10-18T19:44:26.108Z,24.10
2022-10-18T19:46:53.303Z,24.02
2022-10-18T19:49:20.423Z,23.96
2022-10-18T19:51:47.562Z,23.92
2022-10-18T19:54:15.431Z,23.89
2022-10-18T19:56:43.128Z,23.90
2022-10-18T19:59:11.950Z,23.87
2022-10-18T20:01:39.553Z,23.90
2022-10-18T20:04:07.727Z,23.90
2022-10-18T20:06:36.038Z,23.92
2022-10-18T20:09:04.320Z,23.94
2022-10-18T20:11:31.543Z,23.95
2022-10-18T20:14:00.022Z,23.95
2022-10-18T20:16:31.082Z,23.94
2022-10-18T20:18:59.770Z,23.97
2022-10-18T20:21:28.666Z,23.95
2022-10-18T20:23:56.111Z,23.94
2022-10-18T20:26:25.675Z,23.93
2022-10-18T20:28:57.363Z,23.93
2022-10-18T20:31:27.799Z,23.93
2022-10-18T20:34:00.129Z,23.92
2022-10-18T20:36:29.342Z,23.83
2022-10-18T20:38:56.956Z,23.77
2022-10-18T20:41:29.844Z,23.68
2022-10-18T20:44:00.006Z,23.62
2022-10-18T20:46:32.817Z,23.57
2022-10-18T20:49:00.213Z,23.50
2022-10-18T20:51:27.845Z,23.48
2022-10-18T20:53:55.077Z,23.50
2022-10-18T20:56:26.830Z,23.52
2022-10-18T20:58:57.943Z,23.53
2022-10-18T21:01:31.162Z,23.56
2022-10-18T21:04:03.340Z,23.57
2022-10-18T21:06:35.900Z,23.60
2022-10-18T21:09:06.446Z,23.63
2022-10-18T21:11:39.318Z,23.66
2022-10-18T21:14:07.400Z,23.61
2022-10-18T21:16:36.271Z,23.61
2022-10-18T21:19:04.463Z,23.62
2022-10-18T21:21:31.864Z,23.61
2022-10-18T21:24:02.423Z,23.60
2022-10-18T21:26:32.667Z,23.58
2022-10-18T21:29:00.123Z,23.59
2022-10-18T21:31:30.026Z,23.60
2022-10-18T21:34:00.390Z,23.62
2022-10-18T21:36:30.659Z,23.63
2022-10-18T21:38:57.770Z,23.61
2022-10-18T21:41:25.798Z,23.57
2022-10-18T21:43:55.124Z,23.53
2022-10-18T21:46:24.146Z,23.49
2022-10-18T21:48:52.993Z,23.45
2022-10-18T21:51:22.174Z,23.46
2022-10-18T21:53:52.167Z,23.43
2022-10-18T21:56:21.616Z,23.42
2022-10-18T21:58:49.047Z,23.44
2022-10-18T22:01:21.786Z,23.46
2022-10-18T22:03:52.653Z,23.48
2022-10-18T22:06:20.808Z,23.50
2022-10-18T22:08:54.191Z,23.52
2022-10-18T22:11:28.145Z,23.54
2022-10-18T22:13:55.921Z,23.52
2022-10-18T22:16:23.222Z,23.51
2022-10-18T22:18:51.336Z,23.50
2022-10-18T22:21:20.195Z,23.52
2022-10-18T22:23:52.208Z,23.55
2022-10-18T22:26:24.061Z,23.50
2022-10-18T22:29:06.267Z,23.49
2022-10-18T22:31:36.835Z,23.49
2022-10-18T22:34:08.652Z,23.50
2022-10-18T22:36:36.155Z,23.52
2022-10-18T22:39:05.695Z,23.55
2022-10-18T22:41:33.743Z,23.56
2022-10-18T22:44:03.520Z,23.57
2022-10-18T22:46:32.223Z,23.57
2022-10-18T22:48:59.331Z,23.57
2022-10-18T22:51:26.430Z,23.56
2022-10-18T22:53:53.551Z,23.53
2022-10-18T22:56:22.229Z,23.52
2022-10-18T22:58:49.739Z,23.51
2022-10-18T23:01:19.459Z,23.54
2022-10-18T23:03:47.454Z,23.53
2022-10-18T23:06:26.377Z,23.53
2022-10-18T23:08:54.785Z,23.51
2022-10-18T23:11:22.411Z,23.49
2022-10-18T23:13:50.051Z,23.48
2022-10-18T23:16:18.156Z,23.43
2022-10-18T23:18:48.836Z,23.36
2022-10-18T23:21:15.934Z,23.33
2022-10-18T23:23:43.362Z,23.29
2022-10-18T23:26:17.915Z,23.28
2022-10-18T23:28:47.638Z,23.29
2022-10-18T23:31:29.721Z,23.28
2022-10-18T23:33:59.101Z,23.26
2022-10-18T23:36:26.675Z,23.25
2022-10-18T23:38:54.034Z,23.17
2022-10-18T23:41:21.356Z,23.12
2022-10-18T23:43:48.999Z,23.03
2022-10-18T23:46:18.305Z,22.95
2022-10-18T23:48:46.135Z,22.92
2022-10-18T23:51:13.385Z,22.88
2022-10-18T23:53:40.854Z,22.82
2022-10-18T23:56:10.901Z,22.80
2022-10-18T23:58:38.746Z,22.80
